AAL185 KBNA-KMIA
Flight info
| Callsign | AAL185 |
|---|---|
| Flight time | 1h 37m |
| Altitude | 35000 |
| Route | FLAME4 GENDE DCT ACORI FROGZ5 |
| Aircraft | B738/M-SDE2E3FGHIRWXY/LB1 |
Departure
| Time | 2026-05-06 20:34 |
|---|---|
| Airport | Nashville International Airport (KBNA) |
Arrival
| Time | 2026-05-06 22:12 |
|---|---|
| Airport | Miami International Airport (KMIA) |
| Time | Latitude | Longitude | Altitude | Speed | Heading |
|---|---|---|---|---|---|
| 2026-05-06 20:13 | 36.13236 | -86.67221 | 570 ft | 0 kts | 38° |
| 2026-05-06 20:13 | 36.13209 | -86.67177 | 571 ft | 0 kts | 38° |
| 2026-05-06 20:13 | 36.13214 | -86.67161 | 570 ft | 0 kts | 50° |
| 2026-05-06 20:22 | 36.13204 | -86.67176 | 570 ft | 2 kts | 46° |
| 2026-05-06 20:22 | 36.13192 | -86.67191 | 571 ft | 2 kts | 51° |
| 2026-05-06 20:22 | 36.13182 | -86.67207 | 573 ft | 2 kts | 60° |
| 2026-05-06 20:23 | 36.13176 | -86.67226 | 570 ft | 2 kts | 81° |
| 2026-05-06 20:23 | 36.13177 | -86.67246 | 569 ft | 2 kts | 109° |
| 2026-05-06 20:23 | 36.13180 | -86.67257 | 569 ft | 0 kts | 103° |
| 2026-05-06 20:28 | 36.13180 | -86.67256 | 569 ft | 1 kts | 99° |
| 2026-05-06 20:29 | 36.13187 | -86.67246 | 571 ft | 4 kts | 34° |
| 2026-05-06 20:29 | 36.13205 | -86.67253 | 573 ft | 6 kts | 326° |
| 2026-05-06 20:29 | 36.13236 | -86.67326 | 570 ft | 15 kts | 301° |
| 2026-05-06 20:29 | 36.13334 | -86.67340 | 568 ft | 16 kts | 18° |
| 2026-05-06 20:30 | 36.13444 | -86.67380 | 564 ft | 16 kts | 292° |
| 2026-05-06 20:30 | 36.13513 | -86.67676 | 571 ft | 22 kts | 286° |
| 2026-05-06 20:30 | 36.13421 | -86.67814 | 574 ft | 23 kts | 198° |
| 2026-05-06 20:31 | 36.13271 | -86.67873 | 578 ft | 22 kts | 197° |
| 2026-05-06 20:31 | 36.13112 | -86.67933 | 577 ft | 27 kts | 197° |
| 2026-05-06 20:31 | 36.12937 | -86.68002 | 578 ft | 25 kts | 198° |
| 2026-05-06 20:31 | 36.12778 | -86.68064 | 581 ft | 23 kts | 194° |
| 2026-05-06 20:32 | 36.12607 | -86.68126 | 580 ft | 27 kts | 195° |
| 2026-05-06 20:32 | 36.12433 | -86.68187 | 583 ft | 25 kts | 196° |
| 2026-05-06 20:32 | 36.12247 | -86.68254 | 585 ft | 36 kts | 196° |
| 2026-05-06 20:32 | 36.12006 | -86.68340 | 589 ft | 35 kts | 197° |
| 2026-05-06 20:33 | 36.11807 | -86.68412 | 597 ft | 26 kts | 197° |
| 2026-05-06 20:33 | 36.11735 | -86.68456 | 600 ft | 1 kts | 242° |
| 2026-05-06 20:33 | 36.11741 | -86.68499 | 614 ft | 6 kts | 286° |
| 2026-05-06 20:33 | 36.11773 | -86.68614 | 613 ft | 18 kts | 307° |
| 2026-05-06 20:34 | 36.11942 | -86.68581 | 610 ft | 55 kts | 17° |
| 2026-05-06 20:34 | 36.12559 | -86.68341 | 584 ft | 128 kts | 19° |
| 2026-05-06 20:34 | 36.13593 | -86.67946 | 737 ft | 174 kts | 15° |
| 2026-05-06 20:34 | 36.14807 | -86.67390 | 1292 ft | 198 kts | 25° |
| 2026-05-06 20:35 | 36.15703 | -86.66150 | 2273 ft | 189 kts | 56° |
| 2026-05-06 20:35 | 36.16441 | -86.64782 | 3079 ft | 200 kts | 51° |
| 2026-05-06 20:35 | 36.17347 | -86.63298 | 3306 ft | 229 kts | 50° |
| 2026-05-06 20:35 | 36.18387 | -86.61683 | 3655 ft | 247 kts | 49° |
| 2026-05-06 20:36 | 36.19497 | -86.60002 | 4223 ft | 255 kts | 48° |
| 2026-05-06 20:36 | 36.20667 | -86.58251 | 4595 ft | 276 kts | 48° |
| 2026-05-06 20:36 | 36.21841 | -86.56289 | 5176 ft | 292 kts | 62° |
| 2026-05-06 20:36 | 36.22272 | -86.53857 | 5974 ft | 299 kts | 92° |
| 2026-05-06 20:37 | 36.21846 | -86.51310 | 6644 ft | 305 kts | 109° |
| 2026-05-06 20:37 | 36.21198 | -86.48780 | 6946 ft | 309 kts | 110° |
| 2026-05-06 20:37 | 36.20426 | -86.46308 | 7000 ft | 308 kts | 126° |
| 2026-05-06 20:37 | 36.18948 | -86.44390 | 7494 ft | 302 kts | 153° |
| 2026-05-06 20:38 | 36.17099 | -86.43356 | 8329 ft | 292 kts | 174° |
| 2026-05-06 20:38 | 36.15120 | -86.43166 | 9172 ft | 283 kts | 188° |
| 2026-05-06 20:38 | 36.13142 | -86.43249 | 10011 ft | 286 kts | 191° |
| 2026-05-06 20:38 | 36.11122 | -86.43372 | 10492 ft | 301 kts | 191° |
| 2026-05-06 20:39 | 36.08946 | -86.43510 | 10662 ft | 326 kts | 190° |
| 2026-05-06 20:39 | 36.06599 | -86.43644 | 10840 ft | 348 kts | 189° |
| 2026-05-06 20:39 | 36.04123 | -86.43767 | 11204 ft | 362 kts | 189° |
| 2026-05-06 20:39 | 36.01591 | -86.43878 | 11884 ft | 364 kts | 189° |
| 2026-05-06 20:40 | 35.99067 | -86.43985 | 12773 ft | 361 kts | 189° |
| 2026-05-06 20:40 | 35.96550 | -86.44097 | 13521 ft | 363 kts | 190° |
| 2026-05-06 20:40 | 35.94022 | -86.44234 | 14121 ft | 363 kts | 193° |
| 2026-05-06 20:40 | 35.91580 | -86.44853 | 14674 ft | 356 kts | 205° |
| 2026-05-06 20:41 | 35.89303 | -86.45990 | 15282 ft | 350 kts | 214° |
| 2026-05-06 20:41 | 35.87267 | -86.47575 | 15892 ft | 345 kts | 222° |
| 2026-05-06 20:41 | 35.85367 | -86.49330 | 16506 ft | 346 kts | 223° |
| 2026-05-06 20:41 | 35.83425 | -86.51148 | 17134 ft | 346 kts | 224° |
| 2026-05-06 20:42 | 35.81534 | -86.52918 | 17683 ft | 348 kts | 224° |
| 2026-05-06 20:42 | 35.79596 | -86.54722 | 18284 ft | 349 kts | 224° |
| 2026-05-06 20:42 | 35.77642 | -86.56533 | 18744 ft | 352 kts | 224° |
| 2026-05-06 20:42 | 35.75677 | -86.58347 | 19165 ft | 355 kts | 224° |
| 2026-05-06 20:43 | 35.73690 | -86.60177 | 19583 ft | 358 kts | 224° |
| 2026-05-06 20:43 | 35.71685 | -86.62018 | 20013 ft | 361 kts | 223° |
| 2026-05-06 20:43 | 35.69662 | -86.63875 | 20423 ft | 364 kts | 223° |
| 2026-05-06 20:43 | 35.67624 | -86.65744 | 20841 ft | 367 kts | 223° |
| 2026-05-06 20:44 | 35.65566 | -86.67630 | 21251 ft | 370 kts | 223° |
| 2026-05-06 20:44 | 35.63500 | -86.69522 | 21648 ft | 373 kts | 223° |
| 2026-05-06 20:44 | 35.61409 | -86.71435 | 22023 ft | 376 kts | 223° |
| 2026-05-06 20:44 | 35.59305 | -86.73360 | 22396 ft | 379 kts | 223° |
| 2026-05-06 20:45 | 35.57099 | -86.75183 | 22760 ft | 388 kts | 215° |
| 2026-05-06 20:45 | 35.54597 | -86.76535 | 23137 ft | 398 kts | 208° |
| 2026-05-06 20:45 | 35.51920 | -86.77536 | 23499 ft | 408 kts | 202° |
| 2026-05-06 20:45 | 35.49063 | -86.78048 | 23783 ft | 421 kts | 193° |
| 2026-05-06 20:46 | 35.46123 | -86.78262 | 24105 ft | 424 kts | 192° |
| 2026-05-06 20:46 | 35.43174 | -86.78428 | 24415 ft | 426 kts | 192° |
| 2026-05-06 20:46 | 35.40205 | -86.78587 | 24804 ft | 423 kts | 192° |
| 2026-05-06 20:46 | 35.37328 | -86.78738 | 25774 ft | 407 kts | 192° |
| 2026-05-06 20:47 | 35.34548 | -86.78893 | 26673 ft | 394 kts | 193° |
| 2026-05-06 20:47 | 35.31807 | -86.79065 | 26981 ft | 398 kts | 193° |
| 2026-05-06 20:47 | 35.29009 | -86.79262 | 27019 ft | 408 kts | 193° |
| 2026-05-06 20:47 | 35.26147 | -86.79468 | 27061 ft | 417 kts | 193° |
| 2026-05-06 20:48 | 35.23213 | -86.79675 | 27127 ft | 426 kts | 192° |
| 2026-05-06 20:48 | 35.20220 | -86.79881 | 27170 ft | 435 kts | 192° |
| 2026-05-06 20:48 | 35.17173 | -86.80087 | 27234 ft | 442 kts | 192° |
| 2026-05-06 20:48 | 35.14090 | -86.80291 | 27403 ft | 447 kts | 192° |
| 2026-05-06 20:49 | 35.10967 | -86.80494 | 27682 ft | 449 kts | 192° |
| 2026-05-06 20:49 | 35.07845 | -86.80697 | 27977 ft | 450 kts | 191° |
| 2026-05-06 20:49 | 35.04720 | -86.80902 | 28267 ft | 452 kts | 191° |
| 2026-05-06 20:49 | 35.01638 | -86.81100 | 28983 ft | 444 kts | 192° |
| 2026-05-06 20:50 | 34.98566 | -86.81301 | 29263 ft | 445 kts | 192° |
| 2026-05-06 20:50 | 34.92294 | -86.81727 | 29564 ft | 452 kts | 192° |
| 2026-05-06 20:50 | 34.89156 | -86.81934 | 29941 ft | 450 kts | 192° |
| 2026-05-06 20:51 | 34.86038 | -86.82138 | 30273 ft | 448 kts | 192° |
| 2026-05-06 20:51 | 34.82948 | -86.82313 | 30619 ft | 449 kts | 190° |
| 2026-05-06 20:51 | 34.79792 | -86.82097 | 30961 ft | 458 kts | 183° |
| 2026-05-06 20:51 | 34.76615 | -86.81325 | 31239 ft | 469 kts | 176° |
| 2026-05-06 20:52 | 34.73465 | -86.80285 | 31514 ft | 470 kts | 175° |
| 2026-05-06 20:52 | 34.70314 | -86.79207 | 31785 ft | 470 kts | 175° |
| 2026-05-06 20:52 | 34.67172 | -86.78125 | 32063 ft | 469 kts | 175° |
| 2026-05-06 20:52 | 34.64026 | -86.77052 | 32348 ft | 468 kts | 176° |
| 2026-05-06 20:53 | 34.60899 | -86.75998 | 32625 ft | 467 kts | 176° |
| 2026-05-06 20:53 | 34.57770 | -86.74956 | 32923 ft | 466 kts | 176° |
| 2026-05-06 20:53 | 34.54645 | -86.73923 | 33206 ft | 465 kts | 176° |
| 2026-05-06 20:53 | 34.51523 | -86.72897 | 33483 ft | 464 kts | 176° |
| 2026-05-06 20:54 | 34.48411 | -86.71878 | 33766 ft | 464 kts | 176° |
| 2026-05-06 20:54 | 34.45297 | -86.70859 | 34034 ft | 463 kts | 176° |
| 2026-05-06 20:54 | 34.42182 | -86.69840 | 34239 ft | 463 kts | 176° |
| 2026-05-06 20:54 | 34.39074 | -86.68825 | 34416 ft | 463 kts | 176° |
| 2026-05-06 20:55 | 34.35962 | -86.67808 | 34627 ft | 463 kts | 176° |
| 2026-05-06 20:55 | 34.32894 | -86.66807 | 34803 ft | 463 kts | 177° |
| 2026-05-06 20:55 | 34.29779 | -86.65789 | 34936 ft | 463 kts | 177° |
| 2026-05-06 20:56 | 34.23528 | -86.63755 | 34944 ft | 466 kts | 176° |
| 2026-05-06 20:56 | 34.17255 | -86.61712 | 34954 ft | 468 kts | 176° |
| 2026-05-06 20:57 | 34.10948 | -86.59661 | 34940 ft | 469 kts | 176° |
| 2026-05-06 20:57 | 34.04619 | -86.57607 | 34965 ft | 474 kts | 176° |
| 2026-05-06 20:58 | 33.98216 | -86.55536 | 34985 ft | 479 kts | 176° |
| 2026-05-06 20:58 | 33.91743 | -86.53441 | 34970 ft | 482 kts | 176° |
| 2026-05-06 20:59 | 33.85271 | -86.51342 | 34972 ft | 481 kts | 176° |
| 2026-05-06 20:59 | 33.78797 | -86.49250 | 34976 ft | 482 kts | 176° |
| 2026-05-06 21:00 | 33.72315 | -86.47162 | 34979 ft | 482 kts | 176° |
| 2026-05-06 21:00 | 33.65831 | -86.45077 | 34978 ft | 483 kts | 176° |
| 2026-05-06 21:01 | 33.59335 | -86.42991 | 34988 ft | 483 kts | 175° |
| 2026-05-06 21:01 | 33.52836 | -86.40907 | 34977 ft | 484 kts | 175° |
| 2026-05-06 21:02 | 33.46374 | -86.38837 | 34977 ft | 483 kts | 175° |
| 2026-05-06 21:02 | 33.39847 | -86.36752 | 34954 ft | 484 kts | 175° |
| 2026-05-06 21:03 | 33.33364 | -86.34682 | 35003 ft | 484 kts | 175° |
| 2026-05-06 21:03 | 33.26854 | -86.32607 | 35003 ft | 484 kts | 175° |
| 2026-05-06 21:04 | 33.20334 | -86.30533 | 34987 ft | 485 kts | 175° |
| 2026-05-06 21:04 | 33.13807 | -86.28460 | 34981 ft | 486 kts | 175° |
| 2026-05-06 21:05 | 33.08330 | -86.26723 | 34984 ft | 487 kts | 175° |
| 2026-05-06 21:05 | 33.01771 | -86.24645 | 34990 ft | 488 kts | 175° |
| 2026-05-06 21:06 | 32.95202 | -86.22567 | 34993 ft | 489 kts | 175° |
| 2026-05-06 21:06 | 32.88621 | -86.20490 | 34986 ft | 490 kts | 175° |
| 2026-05-06 21:07 | 32.82009 | -86.18405 | 34983 ft | 491 kts | 175° |
| 2026-05-06 21:07 | 32.75397 | -86.16323 | 34993 ft | 492 kts | 175° |
| 2026-05-06 21:08 | 32.68766 | -86.14238 | 34998 ft | 493 kts | 175° |
| 2026-05-06 21:08 | 32.62122 | -86.12152 | 34980 ft | 494 kts | 174° |
| 2026-05-06 21:09 | 32.55467 | -86.10066 | 34977 ft | 495 kts | 174° |
| 2026-05-06 21:09 | 32.48798 | -86.07979 | 34970 ft | 496 kts | 174° |
| 2026-05-06 21:10 | 32.42132 | -86.05896 | 34977 ft | 496 kts | 174° |
| 2026-05-06 21:10 | 32.35446 | -86.03811 | 34982 ft | 497 kts | 174° |
| 2026-05-06 21:11 | 32.28801 | -86.01741 | 34987 ft | 497 kts | 174° |
| 2026-05-06 21:11 | 32.22110 | -85.99659 | 35006 ft | 497 kts | 174° |
| 2026-05-06 21:12 | 32.15412 | -85.97579 | 34998 ft | 498 kts | 174° |
| 2026-05-06 21:12 | 32.08713 | -85.95502 | 35002 ft | 498 kts | 174° |
| 2026-05-06 21:13 | 32.02007 | -85.93425 | 35000 ft | 498 kts | 173° |
| 2026-05-06 21:13 | 31.95293 | -85.91349 | 34986 ft | 498 kts | 173° |
| 2026-05-06 21:14 | 31.88593 | -85.89280 | 34988 ft | 497 kts | 173° |
| 2026-05-06 21:14 | 31.81898 | -85.87216 | 34992 ft | 497 kts | 173° |
| 2026-05-06 21:14 | 31.78586 | -85.85957 | 34980 ft | 509 kts | 161° |
| 2026-05-06 21:15 | 31.75558 | -85.83696 | 34994 ft | 524 kts | 144° |
| 2026-05-06 21:15 | 31.70534 | -85.77359 | 35001 ft | 532 kts | 136° |
| 2026-05-06 21:16 | 31.65695 | -85.70841 | 35004 ft | 533 kts | 136° |
| 2026-05-06 21:16 | 31.60773 | -85.64322 | 34998 ft | 533 kts | 137° |
| 2026-05-06 21:17 | 31.55795 | -85.57854 | 34994 ft | 534 kts | 137° |
| 2026-05-06 21:17 | 31.50804 | -85.51416 | 34996 ft | 534 kts | 137° |
| 2026-05-06 21:18 | 31.45801 | -85.44970 | 35044 ft | 534 kts | 137° |
| 2026-05-06 21:18 | 31.40795 | -85.38522 | 35048 ft | 535 kts | 137° |
| 2026-05-06 21:19 | 31.35790 | -85.32083 | 35048 ft | 535 kts | 137° |
| 2026-05-06 21:19 | 31.30768 | -85.25633 | 35050 ft | 536 kts | 137° |
| 2026-05-06 21:20 | 31.25775 | -85.19232 | 35047 ft | 536 kts | 137° |
| 2026-05-06 21:20 | 31.20713 | -85.12754 | 35037 ft | 536 kts | 137° |
| 2026-05-06 21:21 | 31.15708 | -85.06359 | 35035 ft | 537 kts | 137° |
| 2026-05-06 21:21 | 31.10663 | -84.99924 | 35035 ft | 537 kts | 137° |
| 2026-05-06 21:22 | 31.05614 | -84.93495 | 35035 ft | 538 kts | 137° |
| 2026-05-06 21:22 | 31.00562 | -84.87074 | 35033 ft | 538 kts | 137° |
| 2026-05-06 21:23 | 30.95494 | -84.80642 | 35036 ft | 539 kts | 137° |
| 2026-05-06 21:23 | 30.90419 | -84.74214 | 35039 ft | 539 kts | 137° |
| 2026-05-06 21:24 | 30.85320 | -84.67767 | 35036 ft | 542 kts | 137° |
| 2026-05-06 21:24 | 30.77823 | -84.58301 | 35025 ft | 540 kts | 137° |
| 2026-05-06 21:25 | 30.66092 | -84.43543 | 35046 ft | 540 kts | 137° |
| 2026-05-06 21:25 | 30.45695 | -84.18012 | 35037 ft | 540 kts | 137° |
| 2026-05-06 21:25 | 30.35230 | -84.05567 | 34991 ft | 532 kts | 150° |
| 2026-05-06 21:26 | 30.31857 | -84.03096 | 35053 ft | 522 kts | 158° |
| 2026-05-06 21:26 | 30.25402 | -83.99297 | 35046 ft | 520 kts | 160° |
| 2026-05-06 21:27 | 30.18966 | -83.95414 | 35048 ft | 523 kts | 158° |
| 2026-05-06 21:27 | 30.12617 | -83.91277 | 35059 ft | 525 kts | 156° |
| 2026-05-06 21:28 | 30.06327 | -83.87082 | 35062 ft | 525 kts | 156° |
| 2026-05-06 21:28 | 29.82827 | -83.71582 | 35055 ft | 525 kts | 156° |
| 2026-05-06 21:29 | 29.57372 | -83.54916 | 35050 ft | 526 kts | 156° |
| 2026-05-06 21:29 | 29.31912 | -83.38339 | 35061 ft | 526 kts | 156° |
| 2026-05-06 21:30 | 29.22034 | -83.32162 | 35055 ft | 523 kts | 160° |
| 2026-05-06 21:30 | 29.15392 | -83.28837 | 35055 ft | 520 kts | 163° |
| 2026-05-06 21:31 | 29.08711 | -83.25616 | 35056 ft | 521 kts | 162° |
| 2026-05-06 21:31 | 29.02057 | -83.22315 | 35057 ft | 521 kts | 162° |
| 2026-05-06 21:32 | 28.95470 | -83.18987 | 35055 ft | 521 kts | 161° |
| 2026-05-06 21:32 | 28.85485 | -83.13933 | 35054 ft | 521 kts | 161° |
| 2026-05-06 21:33 | 28.78881 | -83.10603 | 35054 ft | 521 kts | 161° |
| 2026-05-06 21:33 | 28.72244 | -83.07265 | 35051 ft | 521 kts | 161° |
| 2026-05-06 21:34 | 28.65611 | -83.03932 | 35047 ft | 521 kts | 161° |
| 2026-05-06 21:34 | 28.58970 | -83.00601 | 35048 ft | 521 kts | 161° |
| 2026-05-06 21:35 | 28.52342 | -82.97280 | 35049 ft | 521 kts | 161° |
| 2026-05-06 21:35 | 28.45705 | -82.93959 | 35053 ft | 521 kts | 161° |
| 2026-05-06 21:36 | 28.39069 | -82.90643 | 35057 ft | 521 kts | 161° |
| 2026-05-06 21:36 | 28.32444 | -82.87337 | 35058 ft | 520 kts | 161° |
| 2026-05-06 21:37 | 28.25810 | -82.84031 | 35049 ft | 520 kts | 161° |
| 2026-05-06 21:37 | 28.19186 | -82.80735 | 35058 ft | 520 kts | 161° |
| 2026-05-06 21:38 | 28.12654 | -82.77485 | 35044 ft | 505 kts | 161° |
| 2026-05-06 21:38 | 28.06300 | -82.74330 | 35059 ft | 495 kts | 161° |
| 2026-05-06 21:39 | 27.99978 | -82.71387 | 35049 ft | 486 kts | 172° |
| 2026-05-06 21:39 | 27.93376 | -82.70029 | 35062 ft | 479 kts | 177° |
| 2026-05-06 21:40 | 27.86789 | -82.68871 | 35065 ft | 479 kts | 176° |
| 2026-05-06 21:40 | 27.80207 | -82.67628 | 35046 ft | 480 kts | 176° |
| 2026-05-06 21:41 | 27.73619 | -82.66330 | 35046 ft | 481 kts | 175° |
| 2026-05-06 21:41 | 27.67014 | -82.65024 | 35045 ft | 482 kts | 175° |
| 2026-05-06 21:42 | 27.60393 | -82.63721 | 35049 ft | 484 kts | 175° |
| 2026-05-06 21:42 | 27.53758 | -82.62419 | 35071 ft | 485 kts | 175° |
| 2026-05-06 21:43 | 27.47146 | -82.60724 | 35075 ft | 489 kts | 170° |
| 2026-05-06 21:43 | 27.40567 | -82.58689 | 35072 ft | 490 kts | 169° |
| 2026-05-06 21:44 | 27.33981 | -82.56678 | 35072 ft | 490 kts | 170° |
| 2026-05-06 21:44 | 27.27386 | -82.54729 | 35070 ft | 490 kts | 170° |
| 2026-05-06 21:45 | 27.20834 | -82.52816 | 35062 ft | 489 kts | 171° |
| 2026-05-06 21:45 | 27.14249 | -82.50893 | 35062 ft | 488 kts | 170° |
| 2026-05-06 21:46 | 27.07775 | -82.48997 | 35043 ft | 471 kts | 171° |
| 2026-05-06 21:46 | 27.01424 | -82.47145 | 35056 ft | 467 kts | 171° |
| 2026-05-06 21:47 | 26.96200 | -82.45625 | 35064 ft | 466 kts | 171° |
| 2026-05-06 21:47 | 26.92069 | -82.44267 | 35048 ft | 472 kts | 160° |
| 2026-05-06 21:47 | 26.90126 | -82.43064 | 35056 ft | 478 kts | 148° |
| 2026-05-06 21:48 | 26.84183 | -82.37434 | 34944 ft | 487 kts | 141° |
| 2026-05-06 21:48 | 26.81637 | -82.34902 | 34702 ft | 490 kts | 141° |
| 2026-05-06 21:48 | 26.79900 | -82.33184 | 34398 ft | 493 kts | 142° |
| 2026-05-06 21:49 | 26.77317 | -82.30658 | 33814 ft | 493 kts | 142° |
| 2026-05-06 21:49 | 26.74763 | -82.28189 | 33267 ft | 489 kts | 142° |
| 2026-05-06 21:49 | 26.72153 | -82.25685 | 32696 ft | 486 kts | 142° |
| 2026-05-06 21:49 | 26.69621 | -82.23265 | 32092 ft | 485 kts | 142° |
| 2026-05-06 21:50 | 26.67059 | -82.20821 | 31496 ft | 484 kts | 142° |
| 2026-05-06 21:50 | 26.64507 | -82.18386 | 30912 ft | 482 kts | 142° |
| 2026-05-06 21:50 | 26.61962 | -82.15957 | 30336 ft | 480 kts | 142° |
| 2026-05-06 21:50 | 26.59418 | -82.13529 | 29700 ft | 482 kts | 142° |
| 2026-05-06 21:51 | 26.56852 | -82.11081 | 29057 ft | 486 kts | 142° |
| 2026-05-06 21:51 | 26.54267 | -82.08617 | 28433 ft | 490 kts | 142° |
| 2026-05-06 21:51 | 26.51685 | -82.06137 | 28162 ft | 490 kts | 141° |
| 2026-05-06 21:51 | 26.49131 | -82.03594 | 28078 ft | 493 kts | 140° |
| 2026-05-06 21:52 | 26.44072 | -81.98451 | 28042 ft | 491 kts | 140° |
| 2026-05-06 21:52 | 26.39013 | -81.93325 | 28039 ft | 491 kts | 140° |
| 2026-05-06 21:53 | 26.33930 | -81.88214 | 27781 ft | 494 kts | 140° |
| 2026-05-06 21:53 | 26.31391 | -81.85665 | 27260 ft | 488 kts | 140° |
| 2026-05-06 21:53 | 26.28893 | -81.83158 | 26772 ft | 479 kts | 140° |
| 2026-05-06 21:54 | 26.26456 | -81.80713 | 26294 ft | 464 kts | 140° |
| 2026-05-06 21:54 | 26.24138 | -81.78271 | 26115 ft | 457 kts | 132° |
| 2026-05-06 21:54 | 26.22402 | -81.75318 | 26075 ft | 458 kts | 116° |
| 2026-05-06 21:54 | 26.21014 | -81.72119 | 26064 ft | 458 kts | 115° |
| 2026-05-06 21:55 | 26.19667 | -81.68901 | 25722 ft | 459 kts | 114° |
| 2026-05-06 21:55 | 26.18322 | -81.65684 | 25374 ft | 456 kts | 115° |
| 2026-05-06 21:55 | 26.16974 | -81.62501 | 24911 ft | 453 kts | 115° |
| 2026-05-06 21:55 | 26.15635 | -81.59385 | 24470 ft | 449 kts | 115° |
| 2026-05-06 21:56 | 26.14268 | -81.56235 | 24031 ft | 447 kts | 115° |
| 2026-05-06 21:56 | 26.12924 | -81.53154 | 23382 ft | 449 kts | 115° |
| 2026-05-06 21:56 | 26.11567 | -81.50056 | 22597 ft | 442 kts | 115° |
| 2026-05-06 21:56 | 26.10234 | -81.47011 | 21862 ft | 434 kts | 115° |
| 2026-05-06 21:57 | 26.08926 | -81.44014 | 21218 ft | 425 kts | 115° |
| 2026-05-06 21:57 | 26.07647 | -81.41090 | 20616 ft | 416 kts | 115° |
| 2026-05-06 21:57 | 26.06393 | -81.38220 | 20025 ft | 407 kts | 115° |
| 2026-05-06 21:57 | 26.05167 | -81.35412 | 19328 ft | 401 kts | 115° |
| 2026-05-06 21:58 | 26.03947 | -81.32615 | 18433 ft | 403 kts | 115° |
| 2026-05-06 21:58 | 26.02726 | -81.29810 | 17436 ft | 403 kts | 114° |
| 2026-05-06 21:58 | 26.01503 | -81.27006 | 16454 ft | 401 kts | 114° |
| 2026-05-06 21:58 | 26.00291 | -81.24225 | 15507 ft | 399 kts | 114° |
| 2026-05-06 21:59 | 25.99087 | -81.21464 | 14578 ft | 396 kts | 114° |
| 2026-05-06 21:59 | 25.97891 | -81.18723 | 13657 ft | 392 kts | 113° |
| 2026-05-06 21:59 | 25.96707 | -81.16012 | 12685 ft | 389 kts | 114° |
| 2026-05-06 21:59 | 25.95551 | -81.13373 | 12294 ft | 370 kts | 114° |
| 2026-05-06 22:00 | 25.94457 | -81.10881 | 12155 ft | 349 kts | 114° |
| 2026-05-06 22:00 | 25.93410 | -81.08485 | 12035 ft | 340 kts | 113° |
| 2026-05-06 22:00 | 25.92390 | -81.06155 | 11990 ft | 332 kts | 114° |
| 2026-05-06 22:00 | 25.91372 | -81.03830 | 12000 ft | 339 kts | 113° |
| 2026-05-06 22:01 | 25.90373 | -81.01374 | 11998 ft | 352 kts | 111° |
| 2026-05-06 22:01 | 25.89432 | -80.98888 | 11983 ft | 345 kts | 110° |
| 2026-05-06 22:01 | 25.88520 | -80.96444 | 11975 ft | 341 kts | 110° |
| 2026-05-06 22:01 | 25.87612 | -80.94046 | 11568 ft | 342 kts | 110° |
| 2026-05-06 22:02 | 25.86693 | -80.91640 | 11096 ft | 333 kts | 111° |
| 2026-05-06 22:02 | 25.85784 | -80.89275 | 10619 ft | 325 kts | 111° |
| 2026-05-06 22:02 | 25.84906 | -80.86996 | 10159 ft | 318 kts | 111° |
| 2026-05-06 22:02 | 25.84056 | -80.84787 | 9559 ft | 314 kts | 111° |
| 2026-05-06 22:03 | 25.83192 | -80.82539 | 8930 ft | 314 kts | 111° |
| 2026-05-06 22:03 | 25.82343 | -80.80332 | 8430 ft | 308 kts | 111° |
| 2026-05-06 22:03 | 25.81506 | -80.78161 | 7945 ft | 303 kts | 112° |
| 2026-05-06 22:03 | 25.80686 | -80.76031 | 7465 ft | 298 kts | 112° |
| 2026-05-06 22:04 | 25.79878 | -80.73935 | 7105 ft | 290 kts | 112° |
| 2026-05-06 22:04 | 25.79098 | -80.71911 | 7040 ft | 286 kts | 112° |
| 2026-05-06 22:04 | 25.78319 | -80.69894 | 7041 ft | 279 kts | 113° |
| 2026-05-06 22:04 | 25.77817 | -80.68603 | 6998 ft | 272 kts | 113° |
| 2026-05-06 22:05 | 25.77546 | -80.67906 | 6897 ft | 273 kts | 113° |
| 2026-05-06 22:05 | 25.77087 | -80.65825 | 6506 ft | 275 kts | 90° |
| 2026-05-06 22:05 | 25.77179 | -80.63707 | 6181 ft | 273 kts | 86° |
| 2026-05-06 22:06 | 25.77314 | -80.61634 | 5837 ft | 266 kts | 85° |
| 2026-05-06 22:06 | 25.77459 | -80.59641 | 5482 ft | 258 kts | 86° |
| 2026-05-06 22:06 | 25.77554 | -80.57856 | 5149 ft | 253 kts | 87° |
| 2026-05-06 22:06 | 25.77633 | -80.55935 | 4766 ft | 243 kts | 87° |
| 2026-05-06 22:07 | 25.77704 | -80.54104 | 4391 ft | 233 kts | 87° |
| 2026-05-06 22:07 | 25.77771 | -80.52336 | 4080 ft | 227 kts | 88° |
| 2026-05-06 22:07 | 25.77839 | -80.50583 | 4043 ft | 230 kts | 88° |
| 2026-05-06 22:07 | 25.77907 | -80.48882 | 4000 ft | 209 kts | 87° |
| 2026-05-06 22:08 | 25.77970 | -80.47349 | 3850 ft | 195 kts | 87° |
| 2026-05-06 22:08 | 25.78030 | -80.45852 | 3610 ft | 193 kts | 87° |
| 2026-05-06 22:08 | 25.78087 | -80.44354 | 3374 ft | 187 kts | 88° |
| 2026-05-06 22:08 | 25.78142 | -80.42995 | 3160 ft | 172 kts | 88° |
| 2026-05-06 22:09 | 25.78195 | -80.41717 | 3048 ft | 165 kts | 88° |
| 2026-05-06 22:09 | 25.78246 | -80.40427 | 2957 ft | 169 kts | 89° |
| 2026-05-06 22:09 | 25.78293 | -80.39358 | 2138 ft | 167 kts | 87° |
| 2026-05-06 22:09 | 25.78345 | -80.38133 | 1843 ft | 152 kts | 89° |
| 2026-05-06 22:10 | 25.78387 | -80.36995 | 1436 ft | 145 kts | 90° |
| 2026-05-06 22:10 | 25.78430 | -80.35894 | 1115 ft | 141 kts | 89° |
| 2026-05-06 22:10 | 25.78475 | -80.34810 | 743 ft | 141 kts | 91° |
| 2026-05-06 22:10 | 25.78517 | -80.33751 | 549 ft | 134 kts | 89° |
| 2026-05-06 22:11 | 25.78560 | -80.32711 | 353 ft | 132 kts | 86° |
| 2026-05-06 22:11 | 25.78615 | -80.31678 | 157 ft | 137 kts | 87° |
| 2026-05-06 22:11 | 25.78645 | -80.30649 | 18 ft | 126 kts | 86° |
| 2026-05-06 22:11 | 25.78681 | -80.29817 | 15 ft | 87 kts | 88° |
| 2026-05-06 22:12 | 25.78706 | -80.29318 | 16 ft | 48 kts | 84° |
| 2026-05-06 22:12 | 25.78793 | -80.29165 | 16 ft | 20 kts | 48° |
| 2026-05-06 22:12 | 25.78825 | -80.29016 | 15 ft | 20 kts | 81° |
| 2026-05-06 22:12 | 25.78863 | -80.28872 | 14 ft | 19 kts | 77° |
| 2026-05-06 22:13 | 25.78874 | -80.28727 | 14 ft | 19 kts | 88° |
| 2026-05-06 22:13 | 25.78915 | -80.28600 | 14 ft | 18 kts | 42° |
| 2026-05-06 22:13 | 25.79014 | -80.28520 | 15 ft | 17 kts | 34° |
| 2026-05-06 22:13 | 25.79117 | -80.28456 | 15 ft | 17 kts | 6° |
| 2026-05-06 22:14 | 25.79189 | -80.28543 | 14 ft | 17 kts | 299° |
| 2026-05-06 22:14 | 25.79253 | -80.28667 | 14 ft | 20 kts | 299° |
| 2026-05-06 22:14 | 25.79334 | -80.28793 | 14 ft | 20 kts | 333° |
| 2026-05-06 22:14 | 25.79468 | -80.28804 | 14 ft | 12 kts | 358° |
| 2026-05-06 22:15 | 25.79550 | -80.28792 | 14 ft | 12 kts | 38° |
| 2026-05-06 22:15 | 25.79575 | -80.28706 | 16 ft | 12 kts | 78° |
| 2026-05-06 22:15 | 25.79598 | -80.28620 | 14 ft | 11 kts | 75° |
| 2026-05-06 22:15 | 25.79617 | -80.28535 | 14 ft | 11 kts | 73° |
| 2026-05-06 22:16 | 25.79625 | -80.28441 | 14 ft | 16 kts | 86° |
| 2026-05-06 22:16 | 25.79630 | -80.28292 | 14 ft | 18 kts | 88° |
| 2026-05-06 22:16 | 25.79687 | -80.28253 | 15 ft | 11 kts | 346° |
| 2026-05-06 22:16 | 25.79726 | -80.28257 | 14 ft | 5 kts | 357° |
| 2026-05-06 22:17 | 25.79733 | -80.28258 | 14 ft | 1 kts | 357° |
| 2026-05-06 22:17 | 25.79737 | -80.28258 | 16 ft | 0 kts | 356° |